createdAt,value
2018-10-05T00:02:06.057Z,15.90
2018-10-05T00:04:35.011Z,12.30
2018-10-05T00:07:03.934Z,18.03
2018-10-05T00:09:32.789Z,16.47
2018-10-05T00:12:01.692Z,14.33
2018-10-05T00:14:30.550Z,15.33
2018-10-05T00:16:59.507Z,15.20
2018-10-05T00:19:28.316Z,15.73
2018-10-05T00:21:57.244Z,13.87
2018-10-05T00:24:28.140Z,20.20
2018-10-05T00:26:57.041Z,10.43
2018-10-05T00:29:25.988Z,12.87
2018-10-05T00:31:55.895Z,18.10
2018-10-05T00:34:24.759Z,11.70
2018-10-05T00:36:53.681Z,12.40
2018-10-05T00:39:22.555Z,17.20
2018-10-05T00:41:51.527Z,13.77
2018-10-05T00:44:20.413Z,18.17
2018-10-05T00:46:50.377Z,13.57
2018-10-05T00:49:19.251Z,15.70
2018-10-05T00:51:48.179Z,13.30
2018-10-05T00:54:17.116Z,16.17
2018-10-05T00:56:46.049Z,16.77
2018-10-05T00:59:14.976Z,11.10
2018-10-05T01:01:43.980Z,18.03
2018-10-05T01:04:12.769Z,11.77
2018-10-05T01:06:41.704Z,18.03
2018-10-05T01:09:10.573Z,14.90
2018-10-05T01:11:39.493Z,14.53
2018-10-05T01:14:08.430Z,16.37
2018-10-05T01:16:37.375Z,15.63
2018-10-05T01:19:06.416Z,12.70
2018-10-05T01:21:35.317Z,18.20
2018-10-05T01:24:04.240Z,16.40
2018-10-05T01:26:33.085Z,9.13
2018-10-05T01:29:02.033Z,10.50
2018-10-05T01:31:30.974Z,13.40
2018-10-05T01:33:59.917Z,13.73
2018-10-05T01:36:28.786Z,12.97
2018-10-05T01:38:57.758Z,10.80
2018-10-05T01:41:26.641Z,17.80
2018-10-05T01:43:55.554Z,14.33
2018-10-05T01:46:24.419Z,12.23
2018-10-05T01:48:53.349Z,15.63
2018-10-05T01:51:31.389Z,10.07
2018-10-05T01:54:01.052Z,11.33
2018-10-05T01:56:30.287Z,12.77
2018-10-05T01:58:59.240Z,11.47
2018-10-05T02:01:28.405Z,13.47
2018-10-05T02:03:57.316Z,11.73
2018-10-05T02:06:26.165Z,9.93
2018-10-05T02:08:55.105Z,9.33
2018-10-05T02:11:23.944Z,12.20
2018-10-05T02:13:52.920Z,14.97
2018-10-05T02:16:21.889Z,14.87
2018-10-05T02:18:50.758Z,10.87
2018-10-05T02:21:19.613Z,13.30
2018-10-05T02:23:48.531Z,13.43
2018-10-05T02:26:17.391Z,13.20
2018-10-05T02:28:46.328Z,13.90
2018-10-05T02:31:15.177Z,13.67
2018-10-05T02:33:44.112Z,12.37
2018-10-05T02:36:12.933Z,14.30
2018-10-05T02:38:41.891Z,11.40
2018-10-05T02:41:10.834Z,11.83
2018-10-05T02:43:39.759Z,11.67
2018-10-05T02:46:08.792Z,16.43
2018-10-05T02:48:37.760Z,10.80
2018-10-05T02:51:06.629Z,15.50
2018-10-05T02:53:35.589Z,12.37
2018-10-05T02:56:04.524Z,13.57
2018-10-05T02:58:33.494Z,8.93
2018-10-05T03:01:13.649Z,10.30
2018-10-05T03:03:43.590Z,12.10
2018-10-05T03:06:12.437Z,9.87
2018-10-05T03:08:42.403Z,15.57
2018-10-05T03:11:11.265Z,9.37
2018-10-05T03:13:40.181Z,14.00
2018-10-05T03:16:09.036Z,19.07
2018-10-05T03:18:37.961Z,11.87
2018-10-05T03:21:06.920Z,10.73
2018-10-05T03:23:35.808Z,11.60
2018-10-05T03:26:04.733Z,9.20
2018-10-05T03:28:33.630Z,8.20
2018-10-05T03:31:02.549Z,10.17
2018-10-05T03:33:31.560Z,11.53
2018-10-05T03:36:00.480Z,9.10
2018-10-05T03:38:29.397Z,10.30
2018-10-05T03:40:58.274Z,14.97
2018-10-05T03:43:27.187Z,10.83
2018-10-05T03:45:56.033Z,11.20
2018-10-05T03:48:24.889Z,10.17
2018-10-05T03:50:53.738Z,13.23
2018-10-05T03:53:22.578Z,13.30
2018-10-05T03:55:51.448Z,11.80
2018-10-05T03:58:22.380Z,9.27
2018-10-05T04:00:52.241Z,10.07
2018-10-05T04:03:21.077Z,15.33
2018-10-05T04:05:49.922Z,11.57
2018-10-05T04:08:18.757Z,10.27
2018-10-05T04:10:47.610Z,12.47
2018-10-05T04:13:16.448Z,11.30
2018-10-05T04:15:45.301Z,10.87
2018-10-05T04:18:14.130Z,10.87
2018-10-05T04:20:42.987Z,14.10
2018-10-05T04:23:11.818Z,10.70
2018-10-05T04:25:40.676Z,16.20
2018-10-05T04:28:09.517Z,10.27
2018-10-05T04:30:38.393Z,13.60
2018-10-05T04:33:10.232Z,12.37
2018-10-05T04:35:39.259Z,13.90
2018-10-05T04:38:09.089Z,13.23
2018-10-05T04:40:38.929Z,15.17
2018-10-05T04:43:08.061Z,19.17
2018-10-05T04:45:36.937Z,8.80
2018-10-05T04:48:05.829Z,13.03
2018-10-05T04:50:38.508Z,21.23
2018-10-05T04:53:07.514Z,17.63
2018-10-05T04:55:36.528Z,16.83
2018-10-05T04:58:05.495Z,12.73
2018-10-05T05:00:34.320Z,18.27
2018-10-05T05:03:03.321Z,18.10
2018-10-05T05:05:34.347Z,12.67
2018-10-05T05:08:03.267Z,16.07
2018-10-05T05:10:33.314Z,11.83
2018-10-05T05:13:02.135Z,13.03
2018-10-05T05:15:31.025Z,15.50
2018-10-05T05:18:01.846Z,15.83
2018-10-05T05:20:30.758Z,12.43
2018-10-05T05:22:59.596Z,12.63
2018-10-05T05:25:28.526Z,14.97
2018-10-05T05:27:57.304Z,16.27
2018-10-05T05:30:26.148Z,19.70
2018-10-05T05:32:54.985Z,17.23
2018-10-05T05:35:23.906Z,19.70
2018-10-05T05:37:53.270Z,28.93
2018-10-05T05:40:22.211Z,21.23
2018-10-05T05:42:51.041Z,22.47
2018-10-05T05:45:19.921Z,21.60
2018-10-05T05:47:48.756Z,19.63
2018-10-05T05:50:17.611Z,20.07
2018-10-05T05:52:46.508Z,19.77
2018-10-05T05:55:15.344Z,12.50
2018-10-05T05:57:45.237Z,20.03
2018-10-05T06:00:14.097Z,15.47
2018-10-05T06:02:42.930Z,12.13
2018-10-05T06:05:12.738Z,15.30
2018-10-05T06:07:41.570Z,13.60
2018-10-05T06:10:10.423Z,13.30
2018-10-05T06:12:39.305Z,16.30
2018-10-05T06:15:08.224Z,18.60
2018-10-05T06:17:37.069Z,15.80
2018-10-05T06:20:06.543Z,13.87
2018-10-05T06:22:35.422Z,14.50
2018-10-05T06:25:04.273Z,11.47
2018-10-05T06:27:33.609Z,13.07
2018-10-05T06:30:02.604Z,15.67
2018-10-05T06:32:31.845Z,14.63
2018-10-05T06:35:00.701Z,14.87
2018-10-05T06:37:30.852Z,17.47
2018-10-05T06:40:00.173Z,14.23
2018-10-05T06:42:32.673Z,12.77
2018-10-05T06:45:02.382Z,11.77
2018-10-05T06:47:31.260Z,16.53
2018-10-05T06:50:00.159Z,17.40
2018-10-05T06:52:28.958Z,21.53
2018-10-05T06:54:57.803Z,15.50
2018-10-05T06:57:26.701Z,21.50
2018-10-05T06:59:55.531Z,14.80
2018-10-05T07:02:24.112Z,16.50
2018-10-05T07:04:52.596Z,15.50
2018-10-05T07:07:21.179Z,12.70
2018-10-05T07:09:49.684Z,18.67
2018-10-05T07:12:18.148Z,25.10
2018-10-05T07:14:46.834Z,17.23
2018-10-05T07:17:15.406Z,14.40
2018-10-05T07:19:44.136Z,25.40
2018-10-05T07:22:12.637Z,18.87
2018-10-05T07:24:41.096Z,16.70
2018-10-05T07:27:11.164Z,14.20
2018-10-05T07:29:41.722Z,13.83
2018-10-05T07:32:10.191Z,18.27
2018-10-05T07:34:40.580Z,13.10
2018-10-05T07:37:09.280Z,17.60
2018-10-05T07:39:37.684Z,16.13
2018-10-05T07:42:06.203Z,14.23
2018-10-05T07:44:34.844Z,15.40
2018-10-05T07:47:03.995Z,16.10
2018-10-05T07:49:32.511Z,16.77
2018-10-05T07:52:01.040Z,14.70
2018-10-05T07:54:29.692Z,17.57
2018-10-05T07:56:58.203Z,15.33
2018-10-05T07:59:27.836Z,21.87
2018-10-05T08:01:58.328Z,18.33
2018-10-05T08:04:27.909Z,14.77
2018-10-05T08:06:56.437Z,23.57
2018-10-05T08:09:25.826Z,18.50
2018-10-05T08:11:54.408Z,22.30
2018-10-05T08:14:22.985Z,14.17
2018-10-05T08:16:51.580Z,23.83
2018-10-05T08:19:20.199Z,23.47
2018-10-05T08:21:48.738Z,22.70
2018-10-05T08:24:17.209Z,20.67
2018-10-05T08:26:45.785Z,25.97
2018-10-05T08:29:14.280Z,23.87
2018-10-05T08:31:43.775Z,18.10
2018-10-05T08:34:12.357Z,30.40
2018-10-05T08:36:40.859Z,18.20
2018-10-05T08:39:11.858Z,17.57
2018-10-05T08:41:40.418Z,17.27
2018-10-05T08:44:09.187Z,15.53
2018-10-05T08:46:37.745Z,11.63
2018-10-05T08:49:06.669Z,14.57
2018-10-05T08:51:35.228Z,14.17
2018-10-05T08:54:03.789Z,15.20
2018-10-05T08:56:32.295Z,20.20
2018-10-05T08:59:00.883Z,16.97
2018-10-05T09:01:29.476Z,19.73
2018-10-05T09:03:59.092Z,18.83
2018-10-05T09:06:28.851Z,15.77
2018-10-05T09:08:57.349Z,16.63
2018-10-05T09:11:26.979Z,18.20
2018-10-05T09:13:55.440Z,18.93
2018-10-05T09:16:24.935Z,23.37
2018-10-05T09:18:53.524Z,18.80
2018-10-05T09:21:22.109Z,18.10
2018-10-05T09:23:50.718Z,22.50
2018-10-05T09:26:19.319Z,20.67
2018-10-05T09:28:47.876Z,25.40
2018-10-05T09:31:17.502Z,29.67
2018-10-05T09:33:46.092Z,28.10
2018-10-05T09:36:14.636Z,41.20
2018-10-05T09:38:43.241Z,74.17
2018-10-05T09:41:11.808Z,27.93
2018-10-05T09:43:40.490Z,31.87
2018-10-05T09:46:09.956Z,24.80
2018-10-05T09:48:38.439Z,34.27
2018-10-05T09:51:06.912Z,35.87
2018-10-05T09:53:35.412Z,45.37
2018-10-05T09:56:03.873Z,47.70
2018-10-05T09:58:32.445Z,38.90
2018-10-05T10:01:06.247Z,34.20
2018-10-05T10:03:36.156Z,47.20
2018-10-05T10:06:05.446Z,25.70
2018-10-05T10:08:33.969Z,35.77
2018-10-05T10:11:02.432Z,28.73
2018-10-05T10:13:30.936Z,31.63
2018-10-05T10:15:59.448Z,17.83
2018-10-05T10:18:27.994Z,23.67
2018-10-05T10:20:56.457Z,19.87
2018-10-05T10:23:24.918Z,18.37
2018-10-05T10:25:53.399Z,17.30
2018-10-05T10:28:21.972Z,24.03
2018-10-05T10:30:50.379Z,19.20
2018-10-05T10:33:18.841Z,18.63
2018-10-05T10:35:47.285Z,19.80
2018-10-05T10:38:15.851Z,15.47
2018-10-05T10:40:50.925Z,12.70
2018-10-05T10:43:19.400Z,17.03
2018-10-05T10:45:47.846Z,17.50
2018-10-05T10:48:16.374Z,12.73
2018-10-05T10:50:44.771Z,20.27
2018-10-05T10:53:13.400Z,15.20
2018-10-05T10:55:41.848Z,10.43
2018-10-05T10:58:10.501Z,13.00
2018-10-05T11:00:39.664Z,9.27
2018-10-05T11:03:08.282Z,12.17
2018-10-05T11:05:36.808Z,7.57
2018-10-05T11:08:05.463Z,8.57
2018-10-05T11:10:34.046Z,12.03
2018-10-05T11:13:03.278Z,9.00
2018-10-05T11:15:31.890Z,10.87
2018-10-05T11:18:00.385Z,12.03
2018-10-05T11:20:28.926Z,10.60
2018-10-05T11:22:57.438Z,11.80
2018-10-05T11:25:26.003Z,12.53
2018-10-05T11:27:54.521Z,10.47
2018-10-05T11:30:23.152Z,17.97
2018-10-05T11:32:51.736Z,10.70
2018-10-05T11:35:20.267Z,17.90
2018-10-05T11:37:48.836Z,11.00
2018-10-05T11:40:17.406Z,13.50
2018-10-05T11:42:45.995Z,9.23
2018-10-05T11:45:14.550Z,11.80
2018-10-05T11:47:43.192Z,8.63
2018-10-05T11:50:12.706Z,11.50
2018-10-05T11:52:41.333Z,10.63
2018-10-05T11:55:09.803Z,9.10
2018-10-05T11:57:38.328Z,17.13
2018-10-05T12:00:07.232Z,11.20
2018-10-05T12:02:36.108Z,11.83
2018-10-05T12:05:04.672Z,12.90
2018-10-05T12:07:33.608Z,13.97
2018-10-05T12:10:02.197Z,10.77
2018-10-05T12:12:30.900Z,11.40
2018-10-05T12:14:59.532Z,64.77
2018-10-05T12:17:28.122Z,147.40
2018-10-05T12:19:56.703Z,71.13
2018-10-05T12:22:25.423Z,104.27
2018-10-05T12:24:53.902Z,34.43
2018-10-05T12:27:22.443Z,19.50
2018-10-05T12:29:51.074Z,14.07
2018-10-05T12:32:20.113Z,14.73
2018-10-05T12:34:49.751Z,20.40
2018-10-05T12:37:18.293Z,23.83
2018-10-05T12:39:46.806Z,13.87
2018-10-05T12:42:15.379Z,13.70
2018-10-05T12:44:44.064Z,12.10
2018-10-05T12:47:12.592Z,12.47
2018-10-05T12:49:41.114Z,21.20
2018-10-05T12:52:09.681Z,58.40
2018-10-05T12:54:38.225Z,73.37
2018-10-05T12:57:06.793Z,21.53
2018-10-05T12:59:35.320Z,40.47
2018-10-05T13:02:03.808Z,36.00
2018-10-05T13:04:32.290Z,15.40
2018-10-05T13:07:00.736Z,20.13
2018-10-05T13:09:29.260Z,20.33
2018-10-05T13:11:57.899Z,11.50
2018-10-05T13:14:27.029Z,14.97
2018-10-05T13:16:56.004Z,20.17
2018-10-05T13:19:25.881Z,10.03
2018-10-05T13:21:54.444Z,10.60
2018-10-05T13:24:24.510Z,10.97
2018-10-05T13:26:53.012Z,18.47
2018-10-05T13:29:21.517Z,8.50
2018-10-05T13:31:49.923Z,16.13
2018-10-05T13:34:18.424Z,10.80
2018-10-05T13:36:46.923Z,10.60
2018-10-05T13:39:15.426Z,9.47
2018-10-05T13:41:43.936Z,10.77
2018-10-05T13:44:12.322Z,9.90
2018-10-05T13:46:40.800Z,10.87
2018-10-05T13:49:09.248Z,8.73
2018-10-05T13:51:37.884Z,141.13
2018-10-05T13:54:06.663Z,142.93
2018-10-05T13:56:35.460Z,76.17
2018-10-05T13:59:04.439Z,77.27
2018-10-05T14:01:32.933Z,81.57
2018-10-05T14:04:01.400Z,11.13
2018-10-05T14:06:29.873Z,10.43
2018-10-05T14:08:58.335Z,21.47
2018-10-05T14:11:26.816Z,22.57
2018-10-05T14:13:55.324Z,15.63
2018-10-05T14:16:23.940Z,26.60
2018-10-05T14:18:52.408Z,12.73
2018-10-05T14:21:20.900Z,9.33
2018-10-05T14:23:49.352Z,12.93
2018-10-05T14:26:17.836Z,10.80
2018-10-05T14:28:46.315Z,9.03
2018-10-05T14:31:14.811Z,8.87
2018-10-05T14:33:43.350Z,13.40
2018-10-05T14:36:11.798Z,20.17
2018-10-05T14:38:40.242Z,8.53
2018-10-05T14:41:08.737Z,12.97
2018-10-05T14:43:37.200Z,8.23
2018-10-05T14:46:06.757Z,8.80
2018-10-05T14:48:35.171Z,8.77
2018-10-05T14:51:03.693Z,8.90
2018-10-05T14:53:32.280Z,11.10
2018-10-05T14:56:01.261Z,9.87
2018-10-05T14:58:29.748Z,11.67
2018-10-05T15:00:58.212Z,8.07
2018-10-05T15:03:26.673Z,8.27
2018-10-05T15:05:55.164Z,8.80
2018-10-05T15:08:23.635Z,8.60
2018-10-05T15:10:53.105Z,10.63
2018-10-05T15:13:21.660Z,10.27
2018-10-05T15:15:50.088Z,9.50
2018-10-05T15:18:18.598Z,7.77
2018-10-05T15:20:47.093Z,7.90
2018-10-05T15:23:15.564Z,10.63
2018-10-05T15:25:44.069Z,15.47
2018-10-05T15:28:12.521Z,70.00
2018-10-05T15:30:41.071Z,128.37
2018-10-05T15:33:09.515Z,29.87
2018-10-05T15:35:38.036Z,95.07
2018-10-05T15:38:06.591Z,44.77
2018-10-05T15:40:35.075Z,11.37
2018-10-05T15:43:03.586Z,12.77
2018-10-05T15:45:32.140Z,6.60
2018-10-05T15:48:00.685Z,7.33
2018-10-05T15:53:18.513Z,5.03
2018-10-05T15:55:47.008Z,9.13
2018-10-05T15:58:15.593Z,10.70
2018-10-05T16:00:44.047Z,17.20
2018-10-05T16:03:12.527Z,9.43
2018-10-05T16:05:41.019Z,13.50
2018-10-05T16:08:09.516Z,13.33
2018-10-05T16:10:38.025Z,14.80
2018-10-05T16:13:06.533Z,7.00
2018-10-05T16:15:35.061Z,6.97
2018-10-05T16:18:03.559Z,8.73
2018-10-05T16:20:32.035Z,7.77
2018-10-05T16:23:00.534Z,11.23
2018-10-05T16:25:28.972Z,7.97
2018-10-05T16:27:57.472Z,7.23
2018-10-05T16:30:26.113Z,8.30
2018-10-05T16:32:54.614Z,8.90
2018-10-05T16:35:23.065Z,8.07
2018-10-05T16:37:51.730Z,11.17
2018-10-05T16:40:20.217Z,4.73
2018-10-05T16:42:48.695Z,5.17
2018-10-05T16:45:17.174Z,13.27
2018-10-05T16:47:46.288Z,5.77
2018-10-05T16:50:14.764Z,9.60
2018-10-05T16:52:43.301Z,8.20
2018-10-05T16:55:11.776Z,7.00
2018-10-05T16:57:40.252Z,8.37
2018-10-05T17:00:08.724Z,7.10
2018-10-05T17:02:37.220Z,5.70
2018-10-05T17:05:05.684Z,15.40
2018-10-05T17:07:34.184Z,11.43
2018-10-05T17:10:02.717Z,9.13
2018-10-05T17:12:31.248Z,13.87
2018-10-05T17:14:59.779Z,12.73
2018-10-05T17:17:28.325Z,14.07
2018-10-05T17:19:56.773Z,12.77
2018-10-05T17:22:25.286Z,15.07
2018-10-05T17:24:53.764Z,13.03
2018-10-05T17:27:22.240Z,18.27
2018-10-05T17:29:50.717Z,23.27
2018-10-05T17:32:19.188Z,14.73
2018-10-05T17:34:47.644Z,15.53
2018-10-05T17:37:16.106Z,20.00
2018-10-05T17:39:44.555Z,12.03
2018-10-05T17:42:13.068Z,17.60
2018-10-05T17:44:41.520Z,13.17
2018-10-05T17:47:10.023Z,13.80
2018-10-05T17:49:38.489Z,14.93
2018-10-05T17:52:06.977Z,10.57
2018-10-05T17:54:35.640Z,13.53
2018-10-05T17:57:04.154Z,19.03
2018-10-05T17:59:32.623Z,11.10
2018-10-05T18:02:01.314Z,12.00
2018-10-05T18:04:29.743Z,17.17
2018-10-05T18:06:58.174Z,14.07
2018-10-05T18:09:26.684Z,14.03
2018-10-05T18:11:55.401Z,16.03
2018-10-05T18:14:23.889Z,16.13
2018-10-05T18:16:52.366Z,11.93
2018-10-05T18:19:20.830Z,9.40
2018-10-05T18:21:49.299Z,13.50
2018-10-05T18:24:17.772Z,10.93
2018-10-05T18:26:46.232Z,11.57
2018-10-05T18:29:14.706Z,10.07
2018-10-05T18:31:43.175Z,11.97
2018-10-05T18:34:11.757Z,18.33
2018-10-05T18:36:40.155Z,21.10
2018-10-05T18:39:09.241Z,16.77
2018-10-05T18:41:37.689Z,11.43
2018-10-05T18:44:06.259Z,10.83
2018-10-05T18:46:34.672Z,13.33
2018-10-05T18:49:03.538Z,15.87
2018-10-05T18:51:31.992Z,13.63
2018-10-05T18:54:00.722Z,13.87
2018-10-05T18:56:34.574Z,14.83
2018-10-05T18:59:03.055Z,14.23
2018-10-05T19:01:31.602Z,12.10
2018-10-05T19:04:00.120Z,14.23
2018-10-05T19:06:28.609Z,13.73
2018-10-05T19:08:57.655Z,13.17
2018-10-05T19:11:26.168Z,12.20
2018-10-05T19:13:54.639Z,15.00
2018-10-05T19:16:23.364Z,15.83
2018-10-05T19:18:51.833Z,15.00
2018-10-05T19:21:20.289Z,16.10
2018-10-05T19:23:48.759Z,14.17
2018-10-05T19:26:17.345Z,16.23
2018-10-05T19:28:45.705Z,15.27
2018-10-05T19:31:14.168Z,12.10
2018-10-05T19:33:42.645Z,13.10
2018-10-05T19:36:11.127Z,16.63
2018-10-05T19:38:39.624Z,21.50
2018-10-05T19:41:08.162Z,14.93
2018-10-05T19:43:36.768Z,21.43
2018-10-05T19:46:05.235Z,15.90
2018-10-05T19:48:33.736Z,15.17
2018-10-05T19:51:02.216Z,14.17
2018-10-05T19:53:30.809Z,15.27
2018-10-05T19:55:59.295Z,11.57
2018-10-05T19:58:27.831Z,11.90
2018-10-05T20:00:56.283Z,11.27
2018-10-05T20:03:24.945Z,11.93
2018-10-05T20:05:53.692Z,16.43
2018-10-05T20:08:22.188Z,12.43
2018-10-05T20:10:50.691Z,13.33
2018-10-05T20:13:19.160Z,15.30
2018-10-05T20:15:47.630Z,14.53
2018-10-05T20:18:16.272Z,19.63
2018-10-05T20:20:44.602Z,18.27
2018-10-05T20:23:13.125Z,16.27
2018-10-05T20:25:41.644Z,19.83
2018-10-05T20:28:10.123Z,15.23
2018-10-05T20:30:38.600Z,25.43
2018-10-05T20:33:07.077Z,15.13
2018-10-05T20:35:35.594Z,20.50
2018-10-05T20:38:04.088Z,20.70
2018-10-05T20:40:32.888Z,17.20
2018-10-05T20:43:01.363Z,12.97
2018-10-05T20:45:29.834Z,24.00
2018-10-05T20:47:58.376Z,21.43
2018-10-05T20:50:26.884Z,22.67
2018-10-05T20:52:55.366Z,23.23
2018-10-05T20:55:23.867Z,27.97
2018-10-05T20:57:52.496Z,21.57
2018-10-05T21:00:20.979Z,16.67
2018-10-05T21:02:49.424Z,13.63
2018-10-05T21:05:17.911Z,17.63
2018-10-05T21:07:46.361Z,16.60
2018-10-05T21:10:14.841Z,16.27
2018-10-05T21:12:43.348Z,19.20
2018-10-05T21:15:11.864Z,19.83
2018-10-05T21:17:40.304Z,19.03
2018-10-05T21:20:09.054Z,16.03
2018-10-05T21:22:37.523Z,19.30
2018-10-05T21:25:06.212Z,15.60
2018-10-05T21:27:35.088Z,11.77
2018-10-05T21:30:03.589Z,13.63
2018-10-05T21:32:32.051Z,17.10
2018-10-05T21:35:00.512Z,17.10
2018-10-05T21:37:28.973Z,12.77
2018-10-05T21:39:57.461Z,17.07
2018-10-05T21:42:25.916Z,11.40
2018-10-05T21:44:54.430Z,11.83
2018-10-05T21:47:22.832Z,20.10
2018-10-05T21:49:51.318Z,20.63
2018-10-05T21:52:23.527Z,16.93
2018-10-05T21:54:52.070Z,13.73
2018-10-05T21:57:22.484Z,16.83
2018-10-05T21:59:51.922Z,16.37
2018-10-05T22:02:21.865Z,13.43
2018-10-05T22:04:50.543Z,16.23
2018-10-05T22:07:20.582Z,13.37
2018-10-05T22:09:59.981Z,16.27
2018-10-05T22:12:28.644Z,17.67
2018-10-05T22:14:57.161Z,13.43
2018-10-05T22:17:25.665Z,14.70
2018-10-05T22:19:54.205Z,16.30
2018-10-05T22:22:22.623Z,18.27
2018-10-05T22:24:51.109Z,15.53
2018-10-05T22:27:19.768Z,11.47
2018-10-05T22:29:48.789Z,13.53
2018-10-05T22:32:18.325Z,12.90
2018-10-05T22:34:46.768Z,12.27
2018-10-05T22:37:15.279Z,14.97
2018-10-05T22:39:43.739Z,11.30
2018-10-05T22:42:12.267Z,11.37
2018-10-05T22:44:40.729Z,13.93
2018-10-05T22:47:10.700Z,14.63
2018-10-05T22:49:39.157Z,16.57
2018-10-05T22:52:07.639Z,12.80
2018-10-05T22:54:36.093Z,13.10
2018-10-05T22:57:04.586Z,12.77
2018-10-05T22:59:33.044Z,10.50
2018-10-05T23:02:01.520Z,13.67
2018-10-05T23:04:29.975Z,13.97
2018-10-05T23:06:58.503Z,12.60
2018-10-05T23:09:26.966Z,12.80
2018-10-05T23:11:57.472Z,11.23
2018-10-05T23:14:27.014Z,12.43
2018-10-05T23:16:56.632Z,12.23
2018-10-05T23:19:25.145Z,8.60
2018-10-05T23:21:53.735Z,10.67
2018-10-05T23:24:23.236Z,11.10
2018-10-05T23:26:51.712Z,11.30
2018-10-05T23:29:20.300Z,13.10
2018-10-05T23:31:48.767Z,13.60
2018-10-05T23:34:17.263Z,15.90
2018-10-05T23:36:45.767Z,17.73
2018-10-05T23:39:14.364Z,10.17
2018-10-05T23:41:42.845Z,9.00
2018-10-05T23:44:11.524Z,9.37
2018-10-05T23:46:40.248Z,12.03
2018-10-05T23:49:08.784Z,10.00
2018-10-05T23:51:38.272Z,13.70
2018-10-05T23:54:06.776Z,10.87
2018-10-05T23:56:35.304Z,12.07
2018-10-05T23:59:03.789Z,9.33
